Hauptseite
METAR-TAF:

METAR-TAF

Flughäfen :

RAF Leeming

Leeming, England

Breite: 54-18N, Länge: 001-32W, Höhe: 40 m

Beobachtung

Neuester Wetterbericht von vor 32 Minuten, um 04:50 UTC
Wind 5 kt aus Nord
Temperatur 10°C
Luftfeuchtigkeit 93%
Luftdruck 1012 hPa
Sichtweite 10 km oder mehr

METAR: EGXE 090450Z AUTO 35005KT 9999 BKN013/// BKN039/// 10/09 Q1012 REDZ

Zeit: 06:22 (05:22 UTC)


TAF: fehlend

Wetterbeobachtungen und Prognosen von mehr als 4000 Flughäfen (METAR und TAF Bericht).

Die verfügbaren Stationen werden durch gelbe und rote Markierungen auf der Karte dargestellt.

Führen Sie die Maus auf sie, um den Namen der Station zu sehen.

Darauf klicken, um die Beobachtung von Wetterbeobachtungen und Prognosen zu sehen.

Um die Karte zu ändern : klicken Sie auf den grünen Tasten mit einem schwarzen Kreuz Zum Vergrößern, auf den grünen Button mit einem Gedankenstrich zu verkleinern, oder auf die grünen Pfeile für benachbarte Karten.


METAR-TAF: